Time;durP1;ratioP1;P1;durP2;ratioP2;P2;SDS_P1;SDS_P2;PMS_P1;PMS_P2;Temp;Humidity;BMP_temperature;BMP_pressure;BME280_temperature;BME280_humidity;BME280_pressure;Samples;Min_cycle;Max_cycle;Signal;HPM_P1;HPM_P2
2021/10/03 00:01:55;;;;;;;0.80;0.80;;;18.80;70.70;;;;;;4862271;29;20033;-79
2021/10/03 00:04:24;;;;;;;0.80;0.80;;;18.80;70.70;;;;;;4876577;29;20024;-80
2021/10/03 00:06:52;;;;;;;1.40;0.85;;;18.80;70.70;;;;;;4880806;29;20556;-79
2021/10/03 00:09:18;;;;;;;0.80;0.80;;;18.80;70.70;;;;;;4870493;29;20036;-80
2021/10/03 00:11:49;;;;;;;0.80;0.80;;;18.80;70.70;;;;;;4874647;29;20041;-79
2021/10/03 00:14:16;;;;;;;1.08;0.75;;;18.80;70.80;;;;;;4900449;29;20414;-78
2021/10/03 00:16:43;;;;;;;1.70;0.90;;;18.80;70.70;;;;;;4901855;29;20069;-79
2021/10/03 00:19:09;;;;;;;0.60;0.60;;;18.80;70.70;;;;;;4874600;29;20028;-78
2021/10/03 00:21:34;;;;;;;0.80;0.80;;;18.80;70.70;;;;;;4874941;29;20606;-78
2021/10/03 00:24:00;;;;;;;0.70;0.70;;;18.90;70.70;;;;;;4895358;29;20033;-79
2021/10/03 00:26:26;;;;;;;1.00;0.90;;;18.80;70.70;;;;;;4863376;29;20045;-79
2021/10/03 00:28:52;;;;;;;0.85;0.77;;;18.90;70.90;;;;;;4874662;29;20529;-78
2021/10/03 00:31:18;;;;;;;0.88;0.85;;;18.90;70.80;;;;;;4870389;29;20474;-78
2021/10/03 00:33:43;;;;;;;0.70;0.70;;;18.90;70.70;;;;;;4846101;29;20032;-79
2021/10/03 00:36:09;;;;;;;0.75;0.75;;;18.90;70.80;;;;;;4868799;29;20041;-79
2021/10/03 00:38:35;;;;;;;0.75;0.75;;;18.90;70.80;;;;;;4885660;29;20037;-79
2021/10/03 00:41:01;;;;;;;0.63;0.63;;;18.90;70.80;;;;;;4873121;29;20068;-80
2021/10/03 00:43:27;;;;;;;0.52;0.52;;;18.90;70.80;;;;;;4876958;29;20037;-79
2021/10/03 00:45:53;;;;;;;0.80;0.80;;;18.90;70.80;;;;;;4873279;29;20471;-79
2021/10/03 00:48:19;;;;;;;0.60;0.60;;;18.90;70.80;;;;;;4879159;29;20033;-79
2021/10/03 00:50:46;;;;;;;0.85;0.80;;;18.90;70.80;;;;;;4862387;29;20703;-81
2021/10/03 00:53:14;;;;;;;0.70;0.70;;;18.90;70.80;;;;;;4856537;29;20036;-79
2021/10/03 00:55:41;;;;;;;1.05;0.90;;;18.90;70.80;;;;;;4872444;29;20032;-79
2021/10/03 00:58:08;;;;;;;0.80;0.70;;;18.90;70.70;;;;;;4887462;29;20061;-79
2021/10/03 01:00:36;;;;;;;0.85;0.75;;;18.90;70.70;;;;;;4859883;29;20048;-79
2021/10/03 01:03:04;;;;;;;0.70;0.70;;;18.90;70.70;;;;;;4861612;29;20430;-79
2021/10/03 01:05:30;;;;;;;1.30;0.80;;;19.00;70.80;;;;;;4862509;29;20117;-79
2021/10/03 01:07:57;;;;;;;0.70;0.70;;;19.00;70.80;;;;;;4873684;29;20044;-78
2021/10/03 01:10:26;;;;;;;0.98;0.80;;;19.00;70.90;;;;;;4863920;29;20036;-80
2021/10/03 01:12:57;;;;;;;0.90;0.68;;;19.00;70.80;;;;;;4885161;29;20366;-80
2021/10/03 01:15:25;;;;;;;0.75;0.75;;;19.00;70.80;;;;;;4875506;29;20435;-79
2021/10/03 01:17:51;;;;;;;1.05;0.77;;;19.00;70.90;;;;;;4877225;29;20049;-80
2021/10/03 01:20:17;;;;;;;0.82;0.80;;;19.00;70.90;;;;;;4869482;29;20036;-78
2021/10/03 01:22:43;;;;;;;0.70;0.70;;;19.00;70.90;;;;;;4840999;29;20512;-79
2021/10/03 01:25:11;;;;;;;0.60;0.60;;;19.00;70.90;;;;;;4873428;29;20085;-79
2021/10/03 01:27:38;;;;;;;0.50;0.50;;;19.00;70.90;;;;;;4880184;29;20142;-78
2021/10/03 01:30:10;;;;;;;0.70;0.70;;;19.00;70.90;;;;;;4861458;29;20105;-78
2021/10/03 01:32:37;;;;;;;0.63;0.63;;;19.00;70.90;;;;;;4869955;29;20493;-79
2021/10/03 01:35:03;;;;;;;0.73;0.73;;;19.00;70.90;;;;;;4903159;29;20027;-78
2021/10/03 01:37:29;;;;;;;0.70;0.70;;;19.00;70.90;;;;;;4865428;29;20038;-78
2021/10/03 01:39:55;;;;;;;0.55;0.55;;;19.10;70.90;;;;;;4871732;29;20025;-78
2021/10/03 01:42:21;;;;;;;0.60;0.60;;;19.10;71.00;;;;;;4870480;29;20120;-79
2021/10/03 01:44:47;;;;;;;0.77;0.77;;;19.00;70.90;;;;;;4867936;29;20226;-79
2021/10/03 01:47:13;;;;;;;0.55;0.55;;;19.10;71.00;;;;;;4872473;29;20041;-79
2021/10/03 01:49:38;;;;;;;0.73;0.60;;;19.10;71.00;;;;;;4871379;29;20037;-79
2021/10/03 01:52:04;;;;;;;0.55;0.55;;;19.10;71.00;;;;;;4865469;29;20036;-78
2021/10/03 01:54:32;;;;;;;0.52;0.50;;;19.10;71.00;;;;;;4882305;29;20034;-79
2021/10/03 01:56:58;;;;;;;0.50;0.50;;;19.10;71.00;;;;;;4863096;29;20056;-79
2021/10/03 01:59:24;;;;;;;0.77;0.70;;;19.10;70.90;;;;;;4875040;29;20029;-79
2021/10/03 02:01:50;;;;;;;0.70;0.70;;;19.10;71.00;;;;;;4862325;29;20070;-81
2021/10/03 02:04:25;;;;;;;0.68;0.68;;;19.10;70.90;;;;;;4874756;29;20120;-79
2021/10/03 02:06:56;;;;;;;0.60;0.60;;;19.10;71.10;;;;;;4863329;29;20069;-79
2021/10/03 02:09:24;;;;;;;0.50;0.50;;;19.10;71.00;;;;;;4875194;29;20053;-80
2021/10/03 02:12:00;;;;;;;0.40;0.40;;;19.10;71.00;;;;;;4880720;29;20064;-81
2021/10/03 02:14:34;;;;;;;0.60;0.60;;;19.10;71.10;;;;;;4881721;29;20028;-79
2021/10/03 02:17:02;;;;;;;0.60;0.60;;;19.10;71.00;;;;;;4874371;29;20053;-79
2021/10/03 02:19:29;;;;;;;0.68;0.68;;;19.20;71.00;;;;;;4880958;29;20486;-78
2021/10/03 02:21:55;;;;;;;0.70;0.60;;;19.20;71.00;;;;;;4877303;29;20498;-80
2021/10/03 02:24:22;;;;;;;0.70;0.70;;;19.20;71.00;;;;;;4895120;29;20029;-79
2021/10/03 02:26:48;;;;;;;0.57;0.57;;;19.20;71.10;;;;;;4872688;29;20049;-78
2021/10/03 02:29:14;;;;;;;0.60;0.60;;;19.20;71.10;;;;;;4892784;29;20037;-79
2021/10/03 02:31:40;;;;;;;0.65;0.60;;;19.20;71.10;;;;;;4901203;29;20033;-79
2021/10/03 02:34:06;;;;;;;0.60;0.60;;;19.20;71.10;;;;;;4871200;29;20037;-80
2021/10/03 02:36:32;;;;;;;1.00;0.60;;;19.20;71.10;;;;;;4847320;29;20101;-79
2021/10/03 02:38:58;;;;;;;0.65;0.60;;;19.20;71.10;;;;;;4878294;29;20060;-80
2021/10/03 02:41:25;;;;;;;0.63;0.63;;;19.20;71.10;;;;;;4861665;29;20041;-79
2021/10/03 02:43:54;;;;;;;0.57;0.57;;;19.20;71.10;;;;;;4877482;29;20038;-79
2021/10/03 02:46:21;;;;;;;0.60;0.60;;;19.20;71.10;;;;;;4880544;29;20037;-79
2021/10/03 02:48:51;;;;;;;0.50;0.50;;;19.20;71.10;;;;;;4879585;29;20021;-79
2021/10/03 02:51:26;;;;;;;0.60;0.60;;;19.20;71.10;;;;;;4880476;29;20032;-81
2021/10/03 02:53:53;;;;;;;;;;;19.20;71.10;;;;;;4884439;29;20481;-79
2021/10/03 02:56:21;;;;;;;1.70;0.55;;;19.20;70.90;;;;;;4898848;29;19918;-79
2021/10/03 02:58:47;;;;;;;0.75;0.55;;;19.20;71.50;;;;;;4890916;29;20036;-80
2021/10/03 03:01:13;;;;;;;0.50;0.50;;;19.20;71.00;;;;;;4896766;29;20037;-79
2021/10/03 03:03:39;;;;;;;0.82;0.68;;;19.20;71.10;;;;;;4863970;29;20049;-79
2021/10/03 03:06:07;;;;;;;0.57;0.57;;;19.20;71.10;;;;;;4851364;29;20056;-79
2021/10/03 03:08:33;;;;;;;0.52;0.52;;;19.20;71.20;;;;;;4873685;29;20028;-79
2021/10/03 03:10:59;;;;;;;0.60;0.60;;;19.30;71.20;;;;;;4861651;29;20052;-79
2021/10/03 03:13:25;;;;;;;0.60;0.60;;;19.30;71.20;;;;;;4870045;29;20119;-79
2021/10/03 03:15:51;;;;;;;0.80;0.80;;;19.30;71.20;;;;;;4874412;29;20033;-79
2021/10/03 03:18:17;;;;;;;0.50;0.50;;;19.30;71.20;;;;;;4870018;29;20037;-79
2021/10/03 03:20:43;;;;;;;0.60;0.60;;;19.30;71.20;;;;;;4876603;29;20039;-78
2021/10/03 03:23:09;;;;;;;0.63;0.60;;;19.30;71.20;;;;;;4869751;29;20041;-78
2021/10/03 03:25:35;;;;;;;0.63;0.60;;;19.30;71.20;;;;;;4878271;29;20040;-79
2021/10/03 03:28:02;;;;;;;0.60;0.50;;;19.30;71.20;;;;;;4859868;29;20483;-79
2021/10/03 03:30:28;;;;;;;0.60;0.60;;;19.30;71.20;;;;;;4881191;29;20051;-79
2021/10/03 03:32:54;;;;;;;0.93;0.63;;;19.30;71.80;;;;;;4848282;29;20042;-78
2021/10/03 03:35:20;;;;;;;0.60;0.60;;;19.30;71.20;;;;;;4899654;29;20171;-79
2021/10/03 03:37:45;;;;;;;0.85;0.70;;;19.30;71.20;;;;;;4854678;29;20401;-80
2021/10/03 03:40:12;;;;;;;0.93;0.70;;;19.30;71.20;;;;;;4846994;29;20034;-79
2021/10/03 03:42:39;;;;;;;0.90;0.80;;;19.30;71.20;;;;;;4878391;29;20445;-79
2021/10/03 03:45:07;;;;;;;0.77;0.77;;;19.30;71.20;;;;;;4880659;29;20134;-79
2021/10/03 03:47:33;;;;;;;0.65;0.60;;;19.30;71.20;;;;;;4862584;29;20037;-79
2021/10/03 03:49:58;;;;;;;0.68;0.68;;;19.30;71.20;;;;;;4874784;29;20029;-80
2021/10/03 03:52:25;;;;;;;0.82;0.63;;;19.30;71.20;;;;;;4869747;29;20087;-80
2021/10/03 03:54:50;;;;;;;0.77;0.70;;;19.30;71.30;;;;;;4888843;29;20047;-80
2021/10/03 03:57:16;;;;;;;0.80;0.80;;;19.30;71.30;;;;;;4884763;29;20037;-79
2021/10/03 03:59:42;;;;;;;0.95;0.82;;;19.40;71.40;;;;;;4860319;29;20038;-79
2021/10/03 04:02:08;;;;;;;0.85;0.77;;;19.40;71.40;;;;;;4873096;29;20485;-80
2021/10/03 04:04:34;;;;;;;0.63;0.63;;;19.30;71.30;;;;;;4860089;29;20025;-79
2021/10/03 04:06:59;;;;;;;0.50;0.50;;;19.30;71.30;;;;;;4887828;29;20092;-81
2021/10/03 04:09:25;;;;;;;1.10;0.80;;;19.30;71.40;;;;;;4871389;29;20382;-80
2021/10/03 04:11:51;;;;;;;0.75;0.75;;;19.40;71.40;;;;;;4853059;29;20450;-78
2021/10/03 04:14:16;;;;;;;0.68;0.68;;;19.40;71.40;;;;;;4881560;29;20474;-79
2021/10/03 04:16:42;;;;;;;0.60;0.60;;;19.40;71.40;;;;;;4890775;29;20076;-78
2021/10/03 04:19:08;;;;;;;0.73;0.73;;;19.40;71.40;;;;;;4889170;29;20079;-79
2021/10/03 04:21:33;;;;;;;0.60;0.60;;;19.40;71.40;;;;;;4884062;29;20124;-80
2021/10/03 04:23:59;;;;;;;0.65;0.60;;;19.40;71.50;;;;;;4881213;29;20469;-79
2021/10/03 04:26:25;;;;;;;0.50;0.50;;;19.40;71.40;;;;;;4883647;29;20036;-80
2021/10/03 04:28:51;;;;;;;0.60;0.60;;;19.40;71.40;;;;;;4877789;29;20029;-79
2021/10/03 04:31:17;;;;;;;1.08;0.65;;;19.40;71.40;;;;;;4883955;29;20168;-79
2021/10/03 04:33:43;;;;;;;0.57;0.57;;;19.40;71.40;;;;;;4899170;29;20111;-79
2021/10/03 04:36:12;;;;;;;0.77;0.68;;;19.40;72.10;;;;;;4904298;29;20493;-79
2021/10/03 04:38:39;;;;;;;0.60;0.60;;;19.40;71.40;;;;;;4882839;29;20048;-79
2021/10/03 04:41:05;;;;;;;0.60;0.60;;;19.40;71.40;;;;;;4882884;29;20112;-80
2021/10/03 04:43:31;;;;;;;0.60;0.60;;;19.30;71.30;;;;;;4890027;29;20077;-79
2021/10/03 04:45:57;;;;;;;0.57;0.57;;;19.30;71.30;;;;;;4893282;29;20375;-79
2021/10/03 04:48:23;;;;;;;1.02;0.93;;;19.40;71.40;;;;;;4879622;29;20430;-79
2021/10/03 04:50:49;;;;;;;0.77;0.68;;;19.40;71.40;;;;;;4898087;29;20088;-79
2021/10/03 04:53:15;;;;;;;0.90;0.57;;;19.30;71.30;;;;;;4865467;29;20478;-79
2021/10/03 04:55:41;;;;;;;0.60;0.60;;;19.30;71.30;;;;;;4910158;29;20045;-79
2021/10/03 04:58:07;;;;;;;0.60;0.60;;;19.30;71.30;;;;;;4888578;29;20108;-79
2021/10/03 05:00:33;;;;;;;0.60;0.60;;;19.30;71.20;;;;;;4867470;29;20481;-79
2021/10/03 05:02:58;;;;;;;0.52;0.50;;;19.30;71.30;;;;;;4862942;29;20033;-79
2021/10/03 05:05:24;;;;;;;1.30;0.65;;;19.30;71.20;;;;;;4884524;29;20044;-79
2021/10/03 05:07:50;;;;;;;0.40;0.40;;;19.30;71.20;;;;;;4866013;29;20105;-79
2021/10/03 05:10:16;;;;;;;0.85;0.63;;;19.30;71.20;;;;;;4878130;29;20040;-80
2021/10/03 05:12:42;;;;;;;0.60;0.60;;;19.30;71.20;;;;;;4878937;29;20058;-79
2021/10/03 05:15:08;;;;;;;0.60;0.50;;;19.30;71.20;;;;;;4905032;29;20671;-80
2021/10/03 05:17:34;;;;;;;1.35;0.65;;;19.30;71.20;;;;;;4887538;29;20032;-79
2021/10/03 05:20:00;;;;;;;1.33;0.63;;;19.20;71.70;;;;;;4885313;29;20037;-79
2021/10/03 05:22:26;;;;;;;0.70;0.60;;;19.30;71.10;;;;;;4873938;29;20810;-79
2021/10/03 05:24:52;;;;;;;0.63;0.60;;;19.30;71.10;;;;;;4875235;29;20044;-79
2021/10/03 05:27:18;;;;;;;0.77;0.60;;;19.20;71.00;;;;;;4871577;29;20067;-79
2021/10/03 05:29:44;;;;;;;0.93;0.50;;;19.20;71.00;;;;;;4887710;29;20044;-79
2021/10/03 05:32:10;;;;;;;0.60;0.60;;;19.20;71.00;;;;;;4885647;29;20033;-79
2021/10/03 05:34:36;;;;;;;0.50;0.50;;;19.20;71.00;;;;;;4873729;29;20617;-80
2021/10/03 05:37:03;;;;;;;1.30;0.60;;;19.20;71.00;;;;;;4880243;29;20041;-79
2021/10/03 05:39:28;;;;;;;0.73;0.60;;;19.20;71.00;;;;;;4889880;29;20047;-80
2021/10/03 05:41:54;;;;;;;0.50;0.50;;;19.10;70.90;;;;;;4885599;29;20033;-79
2021/10/03 05:44:20;;;;;;;0.50;0.50;;;19.10;70.90;;;;;;4899050;29;20037;-79
2021/10/03 05:46:46;;;;;;;0.68;0.55;;;19.10;71.00;;;;;;4893463;29;20405;-79
2021/10/03 05:49:12;;;;;;;0.50;0.50;;;19.10;70.90;;;;;;4899327;29;20039;-79
2021/10/03 05:51:38;;;;;;;1.17;0.55;;;19.10;70.90;;;;;;4893323;29;20036;-79
2021/10/03 05:54:04;;;;;;;0.65;0.50;;;19.10;70.90;;;;;;4876540;29;20040;-79
2021/10/03 05:56:31;;;;;;;0.50;0.50;;;19.10;70.90;;;;;;4889605;29;20533;-79
2021/10/03 05:58:57;;;;;;;0.50;0.50;;;19.10;70.90;;;;;;4881947;29;20066;-80
2021/10/03 06:01:22;;;;;;;1.00;0.60;;;19.10;70.90;;;;;;4864628;29;20028;-80
2021/10/03 06:03:48;;;;;;;0.50;0.50;;;19.10;71.50;;;;;;4876760;29;20393;-80
2021/10/03 06:06:14;;;;;;;0.60;0.40;;;19.10;70.90;;;;;;4882688;29;20059;-79
2021/10/03 06:08:40;;;;;;;0.60;0.60;;;19.00;70.80;;;;;;4886531;29;20524;-79
2021/10/03 06:11:06;;;;;;;0.60;0.50;;;19.00;70.80;;;;;;4887493;29;20566;-79
2021/10/03 06:13:31;;;;;;;0.80;0.57;;;19.00;70.90;;;;;;4879800;29;20100;-79
2021/10/03 06:15:58;;;;;;;0.50;0.50;;;19.00;70.80;;;;;;4862806;29;20375;-79
2021/10/03 06:18:25;;;;;;;0.40;0.40;;;18.90;70.80;;;;;;4895312;29;20047;-80
2021/10/03 06:20:51;;;;;;;1.15;0.60;;;18.90;70.80;;;;;;4863002;29;20099;-80
2021/10/03 06:23:17;;;;;;;0.50;0.50;;;18.90;70.80;;;;;;4867539;29;20335;-80
2021/10/03 06:25:43;;;;;;;0.60;0.60;;;18.90;70.80;;;;;;4894081;29;20516;-79
2021/10/03 06:28:09;;;;;;;1.10;0.70;;;18.90;70.80;;;;;;4886006;29;20061;-80
2021/10/03 06:30:36;;;;;;;1.10;0.80;;;18.90;70.80;;;;;;4893941;29;21587;-80
2021/10/03 06:33:02;;;;;;;0.70;0.60;;;18.90;70.80;;;;;;4899294;29;20087;-80
2021/10/03 06:35:30;;;;;;;0.60;0.60;;;18.90;70.80;;;;;;4879394;29;20473;-80
2021/10/03 06:37:57;;;;;;;0.60;0.50;;;18.80;70.80;;;;;;4870783;29;20456;-80
2021/10/03 06:40:23;;;;;;;0.70;0.70;;;18.80;70.80;;;;;;4888114;29;20080;-81
2021/10/03 06:42:49;;;;;;;0.60;0.60;;;18.80;70.80;;;;;;4901973;29;20462;-80
2021/10/03 06:45:15;;;;;;;0.88;0.73;;;18.80;70.80;;;;;;4890275;29;20051;-80
2021/10/03 06:47:41;;;;;;;0.82;0.70;;;18.80;70.80;;;;;;4866094;29;20158;-80
2021/10/03 06:50:07;;;;;;;0.65;0.60;;;18.80;70.80;;;;;;4878458;29;20052;-80
2021/10/03 06:52:33;;;;;;;0.68;0.50;;;18.80;70.90;;;;;;4899585;29;20044;-80
2021/10/03 06:54:59;;;;;;;1.00;0.70;;;18.80;70.90;;;;;;4882942;29;20033;-79
2021/10/03 06:57:24;;;;;;;1.30;0.73;;;18.80;70.90;;;;;;4904634;29;20040;-80
2021/10/03 06:59:50;;;;;;;0.63;0.63;;;18.80;71.50;;;;;;4883111;29;20165;-80
2021/10/03 07:02:28;;;;;;;0.70;0.70;;;18.70;70.80;;;;;;4872308;29;20037;-81
2021/10/03 07:04:54;;;;;;;0.85;0.70;;;18.70;71.00;;;;;;4895899;29;20081;-79
2021/10/03 07:07:20;;;;;;;0.68;0.60;;;18.70;70.90;;;;;;4882465;29;20047;-80
2021/10/03 07:09:46;;;;;;;0.93;0.70;;;18.70;70.90;;;;;;4867457;29;20441;-80
2021/10/03 07:12:12;;;;;;;0.52;0.52;;;18.70;70.90;;;;;;4881253;29;20033;-80
2021/10/03 07:14:39;;;;;;;0.98;0.70;;;18.60;70.80;;;;;;4893577;29;20036;-80
2021/10/03 07:17:05;;;;;;;0.98;0.65;;;18.70;70.90;;;;;;4872530;29;20039;-80
2021/10/03 07:19:31;;;;;;;0.95;0.70;;;18.60;70.90;;;;;;4872802;29;20038;-81
2021/10/03 07:21:57;;;;;;;1.05;0.80;;;18.60;70.90;;;;;;4883280;29;20477;-80
2021/10/03 07:24:22;;;;;;;0.73;0.73;;;18.60;70.90;;;;;;4882569;29;20378;-80
2021/10/03 07:26:48;;;;;;;0.60;0.60;;;18.60;70.90;;;;;;4895782;29;20478;-81
2021/10/03 07:29:14;;;;;;;1.05;0.68;;;18.60;70.90;;;;;;4891010;29;20032;-81
2021/10/03 07:31:39;;;;;;;0.60;0.60;;;18.60;71.00;;;;;;4866338;29;20393;-80
2021/10/03 07:34:05;;;;;;;0.93;0.60;;;18.60;70.90;;;;;;4888012;29;20045;-81
2021/10/03 07:36:31;;;;;;;0.68;0.68;;;18.50;70.90;;;;;;4897646;29;20401;-81
2021/10/03 07:38:57;;;;;;;0.70;0.70;;;18.60;70.90;;;;;;4881879;29;20056;-82
2021/10/03 07:41:23;;;;;;;0.70;0.70;;;18.60;70.90;;;;;;4895541;29;20043;-80
2021/10/03 07:43:49;;;;;;;1.02;0.90;;;18.60;71.00;;;;;;4889273;29;20079;-81
2021/10/03 07:46:17;;;;;;;0.93;0.65;;;18.50;71.00;;;;;;4885966;29;20080;-80
2021/10/03 07:48:43;;;;;;;0.75;0.75;;;18.50;71.00;;;;;;4890426;29;20107;-81
2021/10/03 07:51:10;;;;;;;0.75;0.70;;;18.50;71.00;;;;;;4887691;29;20076;-81
2021/10/03 07:53:36;;;;;;;1.55;0.93;;;18.50;71.00;;;;;;4865576;29;20470;-80
2021/10/03 07:56:03;;;;;;;0.93;0.70;;;18.50;71.00;;;;;;4877570;29;20039;-81
2021/10/03 07:58:29;;;;;;;0.80;0.80;;;18.50;71.00;;;;;;4880157;29;20037;-78
2021/10/03 08:00:54;;;;;;;0.70;0.70;;;18.50;71.00;;;;;;4896309;29;20044;-79
2021/10/03 08:03:21;;;;;;;1.02;0.93;;;18.50;71.70;;;;;;4904147;29;20037;-81
2021/10/03 08:05:47;;;;;;;1.17;0.80;;;18.50;71.00;;;;;;4888606;29;20060;-80
2021/10/03 08:08:13;;;;;;;0.80;0.80;;;18.50;71.10;;;;;;4873747;29;20044;-80
2021/10/03 08:10:40;;;;;;;0.90;0.70;;;18.50;71.10;;;;;;4881027;29;20063;-79
2021/10/03 08:13:06;;;;;;;0.80;0.80;;;18.50;71.10;;;;;;4892866;29;20080;-80
2021/10/03 08:15:34;;;;;;;1.58;0.90;;;18.40;71.10;;;;;;4897832;29;20080;-80
2021/10/03 08:18:00;;;;;;;0.55;0.50;;;18.40;71.10;;;;;;4895980;29;20065;-80
2021/10/03 08:20:26;;;;;;;1.05;0.70;;;18.40;71.10;;;;;;4886414;29;20088;-81
2021/10/03 08:22:53;;;;;;;0.68;0.68;;;18.40;71.10;;;;;;4890323;29;20040;-80
2021/10/03 08:25:19;;;;;;;0.60;0.60;;;18.40;71.10;;;;;;4880740;29;20028;-81
2021/10/03 08:27:45;;;;;;;0.68;0.68;;;18.40;71.10;;;;;;4896758;29;20040;-81
2021/10/03 08:30:13;;;;;;;0.60;0.60;;;18.40;71.10;;;;;;4896056;29;20032;-79
2021/10/03 08:32:40;;;;;;;0.70;0.70;;;18.40;71.10;;;;;;4906498;29;20036;-80
2021/10/03 08:35:06;;;;;;;0.70;0.65;;;18.40;71.20;;;;;;4880028;29;20100;-80
2021/10/03 08:37:32;;;;;;;0.75;0.70;;;18.40;71.10;;;;;;4880681;29;20068;-80
2021/10/03 08:39:59;;;;;;;0.90;0.70;;;18.40;71.20;;;;;;4897740;29;20040;-79
2021/10/03 08:42:25;;;;;;;0.80;0.70;;;18.40;71.20;;;;;;4897457;29;20049;-81
2021/10/03 08:44:51;;;;;;;0.80;0.80;;;18.40;71.20;;;;;;4889100;29;20037;-81
2021/10/03 08:47:17;;;;;;;0.65;0.60;;;18.30;71.20;;;;;;4892971;29;20044;-82
2021/10/03 08:49:43;;;;;;;0.60;0.60;;;18.30;71.20;;;;;;4879857;29;20031;-90
2021/10/03 08:52:09;;;;;;;1.10;0.90;;;18.30;71.20;;;;;;4893440;29;20036;-83
2021/10/03 08:54:40;;;;;;;1.25;0.82;;;18.30;71.20;;;;;;4896258;29;20043;-82
2021/10/03 08:57:07;;;;;;;0.63;0.63;;;18.30;71.30;;;;;;4895857;29;20095;-83
2021/10/03 08:59:33;;;;;;;0.70;0.70;;;18.30;71.20;;;;;;4880797;29;20537;-83
2021/10/03 09:02:02;;;;;;;0.50;0.50;;;18.30;71.20;;;;;;4890842;29;20111;-83
2021/10/03 09:04:29;;;;;;;0.60;0.60;;;18.30;71.30;;;;;;4879288;29;20053;-83
2021/10/03 09:07:04;;;;;;;0.80;0.60;;;18.30;71.30;;;;;;4898706;29;20049;-83
2021/10/03 09:09:48;;;;;;;1.15;0.77;;;18.30;71.40;;;;;;4873407;29;20537;-83
2021/10/03 09:12:47;;;;;;;0.68;0.68;;;18.20;71.40;;;;;;4862153;29;20033;-82
2021/10/03 09:15:16;;;;;;;0.50;0.50;;;18.30;71.40;;;;;;4904402;29;20049;-82
2021/10/03 09:17:48;;;;;;;0.60;0.60;;;18.30;71.30;;;;;;4887594;29;20025;-83
2021/10/03 09:20:20;;;;;;;0.82;0.60;;;18.20;71.30;;;;;;4878630;29;20124;-83
2021/10/03 09:23:00;;;;;;;0.82;0.60;;;18.20;71.40;;;;;;4871722;29;20028;-82
2021/10/03 09:25:29;;;;;;;0.63;0.40;;;18.20;71.50;;;;;;4880201;29;20028;-84
2021/10/03 09:27:56;;;;;;;0.75;0.60;;;18.20;71.40;;;;;;4846814;29;20045;-83
2021/10/03 09:30:21;;;;;;;0.70;0.70;;;18.20;71.40;;;;;;4893978;29;20040;-83
2021/10/03 09:32:58;;;;;;;0.60;0.60;;;18.20;71.40;;;;;;4897952;29;20044;-82
2021/10/03 09:35:32;;;;;;;0.40;0.40;;;18.10;71.50;;;;;;4893389;29;20113;-83
2021/10/03 09:37:58;;;;;;;0.50;0.50;;;18.20;71.40;;;;;;4892785;29;20079;-83
2021/10/03 09:40:24;;;;;;;0.77;0.60;;;18.20;71.50;;;;;;4864857;29;20033;-83
2021/10/03 09:43:02;;;;;;;0.47;0.47;;;18.10;71.40;;;;;;4880106;29;20028;-83
2021/10/03 09:45:28;;;;;;;0.50;0.50;;;18.10;71.50;;;;;;4891325;29;20445;-86
2021/10/03 09:48:07;;;;;;;0.60;0.60;;;18.10;71.40;;;;;;4869670;29;20040;-82
2021/10/03 09:50:39;;;;;;;0.77;0.55;;;18.10;71.50;;;;;;4880893;29;20025;-83
2021/10/03 09:53:05;;;;;;;0.70;0.70;;;18.10;71.50;;;;;;4867187;29;20804;-86
2021/10/03 09:55:31;;;;;;;0.60;0.60;;;18.10;71.50;;;;;;4880560;29;20425;-83
2021/10/03 09:57:57;;;;;;;1.50;0.70;;;18.10;71.50;;;;;;4879101;29;20032;-82
2021/10/03 10:00:28;;;;;;;0.50;0.50;;;18.10;71.50;;;;;;4887091;29;20045;-81
2021/10/03 10:02:54;;;;;;;0.50;0.50;;;18.10;71.60;;;;;;4887725;29;20033;-85
2021/10/03 10:05:23;;;;;;;0.63;0.60;;;18.10;71.50;;;;;;4884105;29;20045;-81
2021/10/03 10:07:49;;;;;;;0.50;0.50;;;18.10;71.60;;;;;;4894673;29;20123;-85
2021/10/03 10:10:15;;;;;;;0.50;0.50;;;18.00;71.50;;;;;;4918515;29;20032;-81
2021/10/03 10:12:57;;;;;;;0.60;0.60;;;18.10;71.60;;;;;;4899404;29;20047;-81
2021/10/03 10:15:25;;;;;;;0.47;0.47;;;18.10;71.70;;;;;;4881281;29;20041;-79
2021/10/03 10:17:51;;;;;;;0.50;0.50;;;18.00;71.60;;;;;;4894613;29;20044;-84
2021/10/03 10:20:17;;;;;;;0.60;0.60;;;18.00;71.60;;;;;;4894864;29;20040;-82
2021/10/03 10:22:55;;;;;;;0.50;0.50;;;18.00;71.60;;;;;;4883441;29;20429;-81
2021/10/03 10:25:52;;;;;;;0.68;0.60;;;18.00;71.80;;;;;;4883331;29;20038;-82
2021/10/03 10:28:39;;;;;;;0.60;0.60;;;18.00;71.80;;;;;;4885091;29;20028;-82
2021/10/03 10:31:19;;;;;;;0.50;0.50;;;18.00;71.80;;;;;;4898367;29;20040;-82
2021/10/03 10:33:51;;;;;;;0.50;0.50;;;18.00;71.70;;;;;;4911089;29;20088;-81
2021/10/03 10:36:24;;;;;;;0.50;0.50;;;18.00;71.80;;;;;;4883784;29;20037;-81
2021/10/03 10:39:08;;;;;;;0.57;0.57;;;18.00;71.70;;;;;;4900686;29;20036;-81
2021/10/03 10:41:39;;;;;;;0.77;0.60;;;18.00;71.90;;;;;;4883769;29;20462;-82
2021/10/03 10:44:24;;;;;;;0.55;0.55;;;18.00;71.80;;;;;;4917370;29;20107;-82
2021/10/03 10:47:06;;;;;;;0.63;0.63;;;18.00;71.90;;;;;;4910811;29;20068;-83
2021/10/03 10:49:38;;;;;;;0.50;0.50;;;18.00;71.90;;;;;;4898257;29;20312;-82
2021/10/03 10:52:22;;;;;;;0.40;0.40;;;18.00;71.90;;;;;;4902358;29;20031;-81
2021/10/03 10:55:07;;;;;;;0.50;0.50;;;18.00;72.00;;;;;;4886554;29;20041;-81
2021/10/03 10:57:57;;;;;;;0.45;0.45;;;17.90;71.90;;;;;;4868011;29;20036;-81
2021/10/03 11:00:29;;;;;;;0.60;0.50;;;17.90;71.90;;;;;;4883229;29;20116;-81
2021/10/03 11:03:03;;;;;;;0.88;0.50;;;17.90;71.90;;;;;;4883217;29;20029;-81
2021/10/03 11:05:34;;;;;;;0.50;0.50;;;18.00;72.00;;;;;;4882410;29;20553;-81
2021/10/03 11:08:13;;;;;;;0.55;0.52;;;17.90;71.90;;;;;;4876834;29;20295;-81
2021/10/03 11:11:00;;;;;;;0.40;0.40;;;18.00;72.10;;;;;;4898214;29;20032;-81
2021/10/03 11:13:41;;;;;;;0.43;0.43;;;17.90;72.10;;;;;;4899545;29;20310;-81
2021/10/03 11:16:43;;;;;;;0.45;0.45;;;17.90;72.10;;;;;;4888428;29;20031;-81
2021/10/03 11:19:21;;;;;;;0.45;0.45;;;17.90;72.10;;;;;;4886201;29;20041;-80
2021/10/03 11:22:00;;;;;;;0.50;0.50;;;17.90;72.10;;;;;;4895872;29;20478;-85
2021/10/03 11:24:28;;;;;;;0.50;0.50;;;18.00;72.10;;;;;;4914672;29;20107;-80
2021/10/03 11:26:53;;;;;;;0.50;0.50;;;18.00;72.10;;;;;;4868607;29;20085;-85
2021/10/03 11:29:22;;;;;;;0.50;0.50;;;17.90;72.00;;;;;;4884661;29;20052;-78
2021/10/03 11:31:57;;;;;;;0.60;0.55;;;18.00;72.10;;;;;;4899581;29;20039;-81
2021/10/03 11:34:31;;;;;;;0.43;0.43;;;18.00;72.10;;;;;;4905553;29;20058;-80
2021/10/03 11:36:59;;;;;;;0.50;0.50;;;18.00;72.10;;;;;;4887498;29;20032;-80
2021/10/03 11:39:47;;;;;;;0.43;0.43;;;18.00;72.00;;;;;;4910857;29;20029;-80
2021/10/03 11:42:40;;;;;;;0.60;0.60;;;18.00;72.10;;;;;;4908972;29;20040;-80
2021/10/03 11:45:42;;;;;;;0.50;0.50;;;18.00;72.10;;;;;;4885266;29;20076;-81
2021/10/03 11:48:09;;;;;;;0.40;0.40;;;18.00;72.10;;;;;;4821724;29;20049;-80
2021/10/03 11:50:48;;;;;;;0.55;0.55;;;18.00;72.00;;;;;;4885977;29;20478;-76
2021/10/03 11:53:17;;;;;;;0.50;0.50;;;18.00;72.10;;;;;;4884392;29;20050;-79
2021/10/03 11:55:44;;;;;;;0.60;0.60;;;18.00;72.10;;;;;;4883630;29;20132;-79
2021/10/03 11:58:13;;;;;;;0.70;0.70;;;18.00;72.10;;;;;;4883227;29;20040;-78
2021/10/03 12:01:00;;;;;;;0.60;0.60;;;18.00;72.10;;;;;;4868559;29;20040;-78
2021/10/03 12:03:29;;;;;;;0.60;0.60;;;18.00;72.20;;;;;;4868635;29;20028;-78
2021/10/03 12:05:56;;;;;;;0.50;0.50;;;18.00;72.00;;;;;;4882730;29;20104;-78
2021/10/03 12:08:22;;;;;;;0.95;0.70;;;18.00;72.10;;;;;;4883198;29;20489;-79
2021/10/03 12:10:53;;;;;;;0.70;0.70;;;18.00;72.00;;;;;;4900143;29;20025;-78
2021/10/03 12:13:21;;;;;;;0.60;0.52;;;18.00;72.10;;;;;;4867894;29;20043;-78
2021/10/03 12:15:48;;;;;;;0.50;0.50;;;18.00;72.10;;;;;;4883181;29;20478;-77
2021/10/03 12:18:26;;;;;;;0.50;0.50;;;18.00;72.10;;;;;;4883354;29;20466;-78
2021/10/03 12:20:53;;;;;;;0.60;0.60;;;18.10;72.20;;;;;;4883347;29;20500;-77
2021/10/03 12:23:22;;;;;;;0.45;0.45;;;18.10;72.10;;;;;;4867831;29;20028;-78
2021/10/03 12:25:50;;;;;;;0.57;0.57;;;18.10;72.20;;;;;;4884138;29;20100;-78
2021/10/03 12:28:18;;;;;;;0.50;0.50;;;18.10;72.10;;;;;;4868614;29;20089;-78
2021/10/03 12:30:52;;;;;;;0.70;0.70;;;18.10;72.10;;;;;;4899117;29;20032;-78
2021/10/03 12:33:19;;;;;;;0.55;0.55;;;18.10;72.20;;;;;;4867950;29;20456;-79
2021/10/03 12:36:03;;;;;;;0.57;0.57;;;18.10;72.10;;;;;;4899246;29;20040;-78
2021/10/03 12:38:30;;;;;;;0.93;0.60;;;18.10;72.30;;;;;;4883268;29;20041;-78
2021/10/03 12:40:57;;;;;;;0.60;0.60;;;18.10;72.10;;;;;;4899702;29;20068;-79
2021/10/03 12:43:23;;;;;;;0.50;0.50;;;18.10;72.10;;;;;;4867281;29;20075;-79
2021/10/03 12:45:49;;;;;;;0.57;0.57;;;18.10;72.10;;;;;;4898693;29;20047;-79
2021/10/03 12:48:16;;;;;;;0.60;0.60;;;18.10;72.20;;;;;;4867470;29;20033;-79
2021/10/03 12:50:43;;;;;;;0.50;0.50;;;18.10;72.20;;;;;;4868119;29;20127;-79
2021/10/03 12:53:09;;;;;;;0.50;0.50;;;18.20;72.20;;;;;;4883627;29;20141;-78
2021/10/03 12:55:34;;;;;;;0.60;0.60;;;18.20;72.20;;;;;;4882600;29;20123;-79